This demonstration page uses our WeatherBlox Daily Observations layout. Learn more.

39.29038, -76.61219

Hourly Observations for July 28, 2015

Temp ( °F °C ) Dew Point ( °F °C ) Humidity (%) Winds ( mph kmh ) Pressure ( in mb ) Visibility ( mi km ) Precip ( " mm )
12:54 am 00:54 undefined 78 25.6 74 23.3 87 87 undefined N/A 30.01 1016 N/A 0 0
1:54 am 01:54 Mostly Clear 78 25.6 74 23.3 87 87 undefined N/A 30.01 1016 N/A 0 0
2:54 am 02:54 undefined 78 25.6 73 22.8 85 85 undefined N/A 30.01 1016 N/A 0 0
3:54 am 03:54 undefined 77 25 73 22.8 88 88 undefined N/A 30 1016 N/A 0 0
4:54 am 04:54 Cloudy 77 25 73 22.8 88 88 undefined N/A 30 1016 N/A 0 0
5:54 am 05:54 undefined 77 25 73 22.8 88 88 undefined N/A 30 1016 N/A 0 0
6:54 am 06:54 undefined 77 25 73 22.8 88 88 undefined N/A 30.01 1016 N/A 0 0
7:54 am 07:54 Sunny 61 16.2 33 0.4 34 34 undefined N/A 29.57 1001 N/A 0 0
8:54 am 08:54 Mostly Sunny 79 26.1 73 22.8 82 82 undefined N/A 30.02 1017 N/A 0 0
9:54 am 09:54 undefined 83 28.3 72 22.2 70 70 undefined N/A 30.01 1016 N/A 0 0
10:54 am 10:54 undefined 85 29.4 73 22.8 68 68 undefined N/A 30.01 1016 N/A 0 0
11:54 am 11:54 Partly Cloudy 91 32.8 75 23.9 59 59 undefined N/A 29.95 1014 N/A 0 0
12:54 pm 12:54 undefined 88 31.1 70 21.1 55 55 undefined N/A 30 1016 N/A 0 0
1:54 pm 13:54 undefined 88 31.1 69 20.6 54 54 undefined N/A 29.98 1015 N/A 0 0
2:54 pm 14:54 Cloudy 90 32.2 68 20 48 48 undefined N/A 29.96 1015 N/A 0 0
3:54 pm 15:54 undefined 89 31.7 68 20 50 50 undefined N/A 29.97 1015 N/A 0 0
4:54 pm 16:54 undefined 90 32.2 67 19.4 47 47 undefined N/A 29.96 1015 N/A 0 0
5:54 pm 17:54 Sunny 78 25.6 61 16.1 56 56 undefined N/A 29.86 1011 N/A 0 0
6:54 pm 18:54 undefined 88 31.1 65 18.3 46 46 undefined N/A 29.96 1014 N/A 0 0
7:54 pm 19:54 Mostly Sunny 86 30 70 21.1 59 59 undefined N/A 29.97 1015 N/A 0 0
8:54 pm 20:54 undefined 85 29.4 69 20.6 59 59 undefined N/A 29.97 1015 N/A 0 0
9:54 pm 21:54 undefined 83 28.3 71 21.7 67 67 undefined N/A 29.98 1015 N/A 0 0
10:54 pm 22:54 undefined 82 27.8 70 21.1 67 67 undefined N/A 30 1016 N/A 0 0
11:54 pm 23:54 undefined 80 26.7 71 21.7 74 74 undefined N/A 30.01 1016 N/A 0 0

Powered by AerisWeather